createdAt,value
2019-04-10T00:00:53.060Z,88.40
2019-04-10T00:03:31.978Z,88.80
2019-04-10T00:05:56.217Z,89.20
2019-04-10T00:08:26.539Z,89.80
2019-04-10T00:10:56.843Z,90.10
2019-04-10T00:13:28.854Z,89.30
2019-04-10T00:15:59.193Z,88.50
2019-04-10T00:18:29.782Z,88.10
2019-04-10T00:21:00.874Z,89.60
2019-04-10T00:23:33.173Z,90.50
2019-04-10T00:26:03.641Z,90.30
2019-04-10T00:28:33.961Z,91.10
2019-04-10T00:31:05.235Z,90.90
2019-04-10T00:33:36.539Z,91.10
2019-04-10T00:36:07.955Z,91.00
2019-04-10T00:38:38.274Z,90.80
2019-04-10T00:41:08.530Z,91.30
2019-04-10T00:43:39.961Z,91.70
2019-04-10T00:46:10.470Z,92.20
2019-04-10T00:48:41.750Z,92.40
2019-04-10T00:51:12.143Z,92.90
2019-04-10T00:53:43.426Z,93.20
2019-04-10T00:56:14.569Z,93.00
2019-04-10T00:58:45.705Z,93.10
2019-04-10T01:01:16.174Z,93.00
2019-04-10T01:03:48.126Z,93.10
2019-04-10T01:06:18.362Z,93.90
2019-04-10T01:08:50.946Z,93.90
2019-04-10T01:11:21.069Z,92.90
2019-04-10T01:13:51.719Z,92.70
2019-04-10T01:16:22.970Z,93.50
2019-04-10T01:18:53.563Z,93.60
2019-04-10T01:21:23.673Z,93.20
2019-04-10T01:23:55.227Z,93.50
2019-04-10T01:26:25.733Z,93.60
2019-04-10T01:28:56.058Z,93.80
2019-04-10T01:31:26.833Z,94.00
2019-04-10T01:33:57.054Z,93.90
2019-04-10T01:36:27.218Z,92.80
2019-04-10T01:38:57.857Z,93.40
2019-04-10T01:41:28.193Z,93.10
2019-04-10T01:43:59.310Z,93.70
2019-04-10T01:46:32.298Z,94.20
2019-04-10T01:49:01.741Z,93.80
2019-04-10T01:51:32.855Z,93.30
2019-04-10T01:54:03.186Z,92.80
2019-04-10T01:56:35.125Z,93.60
2019-04-10T01:59:05.622Z,93.90
2019-04-10T02:01:43.515Z,93.80
2019-04-10T02:04:14.769Z,94.00
2019-04-10T02:06:45.392Z,94.10
2019-04-10T02:09:15.756Z,94.00
2019-04-10T02:11:46.129Z,93.90
2019-04-10T02:14:16.486Z,94.00
2019-04-10T02:16:47.304Z,94.20
2019-04-10T02:19:18.409Z,94.00
2019-04-10T02:21:49.595Z,94.40
2019-04-10T02:24:19.843Z,94.10
2019-04-10T02:26:50.215Z,94.20
2019-04-10T02:29:20.521Z,94.30
2019-04-10T02:31:52.661Z,93.70
2019-04-10T02:34:23.257Z,93.30
2019-04-10T02:36:55.281Z,93.50
2019-04-10T02:39:32.408Z,93.60
2019-04-10T02:41:58.370Z,93.50
2019-04-10T02:44:30.483Z,93.60
2019-04-10T02:47:02.155Z,94.00
2019-04-10T02:49:32.749Z,94.70
2019-04-10T02:52:04.009Z,95.60
2019-04-10T02:54:35.702Z,94.60
2019-04-10T02:57:07.333Z,94.10
2019-04-10T02:59:37.756Z,93.40
2019-04-10T03:02:08.569Z,93.20
2019-04-10T03:04:40.365Z,92.90
2019-04-10T03:07:11.583Z,92.80
2019-04-10T03:09:58.974Z,93.30
2019-04-10T03:12:14.526Z,93.90
2019-04-10T03:14:47.471Z,93.60
2019-04-10T03:17:17.710Z,93.60
2019-04-10T03:19:47.934Z,93.50
2019-04-10T03:22:18.765Z,93.30
2019-04-10T03:24:49.072Z,93.50
2019-04-10T03:27:19.256Z,93.30
2019-04-10T03:29:49.482Z,93.30
2019-04-10T03:32:35.400Z,93.20
2019-04-10T03:35:20.722Z,93.50
2019-04-10T03:37:51.053Z,93.30
2019-04-10T03:40:21.669Z,93.50
2019-04-10T03:42:52.954Z,93.30
2019-04-10T03:45:24.305Z,93.20
2019-04-10T03:47:55.673Z,92.90
2019-04-10T03:50:26.004Z,92.80
2019-04-10T03:52:57.917Z,92.70
2019-04-10T03:55:29.166Z,92.50
2019-04-10T03:57:59.366Z,92.80
2019-04-10T04:00:30.013Z,92.90
2019-04-10T04:03:00.272Z,92.80
2019-04-10T04:05:30.853Z,92.70
2019-04-10T04:08:01.309Z,92.60
2019-04-10T04:10:31.693Z,92.90
2019-04-10T04:13:04.543Z,92.90
2019-04-10T04:15:34.037Z,92.50
2019-04-10T04:18:05.331Z,92.40
2019-04-10T04:20:35.556Z,92.50
2019-04-10T04:23:05.928Z,92.80
2019-04-10T04:25:36.592Z,92.60
2019-04-10T04:28:07.019Z,92.30
2019-04-10T04:30:38.912Z,92.00
2019-04-10T04:33:10.838Z,91.90
2019-04-10T04:35:44.292Z,91.80
2019-04-10T04:38:16.342Z,91.70
2019-04-10T04:40:46.894Z,91.50
2019-04-10T04:43:17.225Z,91.50
2019-04-10T04:45:48.374Z,91.50
2019-04-10T04:48:19.496Z,91.40
2019-04-10T04:50:50.035Z,91.60
2019-04-10T04:53:21.315Z,91.40
2019-04-10T04:55:51.528Z,91.20
2019-04-10T04:58:22.266Z,90.90
2019-04-10T05:00:52.395Z,90.50
2019-04-10T05:03:22.832Z,90.40
2019-04-10T05:05:53.961Z,90.10
2019-04-10T05:08:24.217Z,89.70
2019-04-10T05:10:54.304Z,89.60
2019-04-10T05:13:24.548Z,89.20
2019-04-10T05:15:55.459Z,89.30
2019-04-10T05:18:25.722Z,89.50
2019-04-10T05:20:56.722Z,90.10
2019-04-10T05:23:27.047Z,89.50
2019-04-10T05:25:58.996Z,89.90
2019-04-10T05:28:29.956Z,90.20
2019-04-10T05:31:01.050Z,91.30
2019-04-10T05:33:31.287Z,91.50
2019-04-10T05:36:01.545Z,91.20
2019-04-10T05:38:31.883Z,91.30
2019-04-10T05:41:13.346Z,90.40
2019-04-10T05:43:44.609Z,88.50
2019-04-10T05:46:21.446Z,85.40
2019-04-10T05:48:52.456Z,84.60
2019-04-10T05:51:23.335Z,84.20
2019-04-10T05:53:55.274Z,88.80
2019-04-10T05:56:25.869Z,88.50
2019-04-10T05:58:57.345Z,87.40
2019-04-10T06:01:35.218Z,87.20
2019-04-10T06:03:59.673Z,86.60
2019-04-10T06:06:30.658Z,88.10
2019-04-10T06:09:02.580Z,88.00
2019-04-10T06:11:37.371Z,86.40
2019-04-10T06:14:18.106Z,84.40
2019-04-10T06:16:50.958Z,84.50
2019-04-10T06:19:22.030Z,82.80
2019-04-10T06:21:52.586Z,84.40
2019-04-10T06:24:22.755Z,82.90
2019-04-10T06:26:54.059Z,80.10
2019-04-10T06:29:24.538Z,80.10
2019-04-10T06:31:54.863Z,79.80
2019-04-10T06:34:25.079Z,76.80
2019-04-10T06:36:55.266Z,76.00
2019-04-10T06:39:25.460Z,75.00
2019-04-10T06:41:56.109Z,74.30
2019-04-10T06:44:26.425Z,74.30
2019-04-10T06:46:57.074Z,73.30
2019-04-10T06:49:27.395Z,72.20
2019-04-10T06:51:57.764Z,71.00
2019-04-10T06:54:28.879Z,69.50
2019-04-10T06:56:59.134Z,69.30
2019-04-10T06:59:30.356Z,69.30
2019-04-10T07:02:13.112Z,71.70
2019-04-10T07:04:44.210Z,71.20
2019-04-10T07:07:09.340Z,71.40
2019-04-10T07:09:37.826Z,67.90
2019-04-10T07:12:08.307Z,67.30
2019-04-10T07:14:40.942Z,66.80
2019-04-10T07:17:11.252Z,66.20
2019-04-10T07:19:44.023Z,65.10
2019-04-10T07:22:15.833Z,66.20
2019-04-10T07:24:46.166Z,66.30
2019-04-10T07:27:16.441Z,69.20
2019-04-10T07:29:50.786Z,66.50
2019-04-10T07:32:19.469Z,65.20
2019-04-10T07:34:50.883Z,64.40
2019-04-10T07:37:23.035Z,65.50
2019-04-10T07:39:53.061Z,66.40
2019-04-10T07:42:28.396Z,65.80
2019-04-10T07:44:56.399Z,62.80
2019-04-10T07:47:27.229Z,62.50
2019-04-10T07:49:59.508Z,62.50
2019-04-10T07:52:29.614Z,63.10
2019-04-10T07:55:00.902Z,63.90
2019-04-10T07:57:31.421Z,62.50
2019-04-10T08:00:02.910Z,60.40
2019-04-10T08:02:36.712Z,59.40
2019-04-10T08:05:08.196Z,61.90
2019-04-10T08:07:39.319Z,60.50
2019-04-10T08:10:10.296Z,60.50
2019-04-10T08:12:47.633Z,61.10
2019-04-10T08:15:13.340Z,60.70
2019-04-10T08:17:44.438Z,59.00
2019-04-10T08:20:15.984Z,58.90
2019-04-10T08:22:46.858Z,59.70
2019-04-10T08:25:18.349Z,59.20
2019-04-10T08:27:48.691Z,59.20
2019-04-10T08:30:19.566Z,62.10
2019-04-10T08:32:57.050Z,61.40
2019-04-10T08:35:21.705Z,63.00
2019-04-10T08:37:52.789Z,59.30
2019-04-10T08:40:23.234Z,60.70
2019-04-10T08:42:53.538Z,61.10
2019-04-10T08:45:35.792Z,61.20
2019-04-10T08:47:57.622Z,59.60
2019-04-10T08:50:28.118Z,60.60
2019-04-10T08:52:58.425Z,64.90
2019-04-10T08:55:28.581Z,61.70
2019-04-10T08:57:58.733Z,64.60
2019-04-10T09:00:30.050Z,62.60
2019-04-10T09:03:00.395Z,60.40
2019-04-10T09:05:30.613Z,62.40
2019-04-10T09:08:01.025Z,60.50
2019-04-10T09:10:31.629Z,64.50
2019-04-10T09:13:02.046Z,63.60
2019-04-10T09:15:32.259Z,59.60
2019-04-10T09:18:02.511Z,63.00
2019-04-10T09:20:33.061Z,64.80
2019-04-10T09:23:27.766Z,64.20
2019-04-10T09:25:35.541Z,64.70
2019-04-10T09:28:06.454Z,62.70
2019-04-10T09:30:37.227Z,62.90
2019-04-10T09:33:18.709Z,62.50
2019-04-10T09:35:40.459Z,61.10
2019-04-10T09:38:10.654Z,62.90
2019-04-10T09:40:42.577Z,59.00
2019-04-10T09:43:14.226Z,58.30
2019-04-10T09:45:45.850Z,58.20
2019-04-10T09:48:16.546Z,64.70
2019-04-10T09:50:46.674Z,60.80
2019-04-10T09:53:17.130Z,60.70
2019-04-10T09:55:47.227Z,59.70
2019-04-10T09:58:18.470Z,59.90
2019-04-10T10:00:48.627Z,59.10
2019-04-10T10:03:19.463Z,59.50
2019-04-10T10:05:49.715Z,58.20
2019-04-10T10:08:20.479Z,61.00
2019-04-10T10:10:50.720Z,62.10
2019-04-10T10:13:21.397Z,60.50
2019-04-10T10:15:51.622Z,63.00
2019-04-10T10:18:21.789Z,61.30
2019-04-10T10:20:52.292Z,63.00
2019-04-10T10:23:22.540Z,60.60
2019-04-10T10:25:53.282Z,59.70
2019-04-10T10:28:23.851Z,59.10
2019-04-10T10:30:53.952Z,59.40
2019-04-10T10:33:24.056Z,54.50
2019-04-10T10:35:54.222Z,54.50
2019-04-10T10:38:25.667Z,56.20
2019-04-10T10:40:56.959Z,56.30
2019-04-10T10:43:27.343Z,58.50
2019-04-10T10:45:58.794Z,58.00
2019-04-10T10:48:29.558Z,56.40
2019-04-10T10:50:59.799Z,55.70
2019-04-10T10:53:30.383Z,56.90
2019-04-10T10:56:00.623Z,58.40
2019-04-10T10:58:30.792Z,58.10
2019-04-10T11:01:00.967Z,56.20
2019-04-10T11:03:32.066Z,55.30
2019-04-10T11:06:04.093Z,53.30
2019-04-10T11:08:35.285Z,55.00
2019-04-10T11:11:06.296Z,59.20
2019-04-10T11:13:37.143Z,56.30
2019-04-10T11:16:07.581Z,56.90
2019-04-10T11:18:38.280Z,56.00
2019-04-10T11:21:11.580Z,55.20
2019-04-10T11:23:40.364Z,56.90
2019-04-10T11:26:11.088Z,54.50
2019-04-10T11:28:41.892Z,52.10
2019-04-10T11:31:13.539Z,51.90
2019-04-10T11:33:49.822Z,52.90
2019-04-10T11:36:17.435Z,52.30
2019-04-10T11:38:49.257Z,51.80
2019-04-10T11:41:20.962Z,52.70
2019-04-10T11:43:52.780Z,52.00
2019-04-10T11:46:25.288Z,49.10
2019-04-10T11:48:55.553Z,49.60
2019-04-10T11:51:30.244Z,49.80
2019-04-10T11:53:59.197Z,52.10
2019-04-10T11:56:30.641Z,49.50
2019-04-10T11:59:01.753Z,51.20
2019-04-10T12:01:34.263Z,51.90
2019-04-10T12:04:08.206Z,56.50
2019-04-10T12:06:39.358Z,50.40
2019-04-10T12:09:45.249Z,48.40
2019-04-10T12:11:42.049Z,51.60
2019-04-10T12:14:13.199Z,53.90
2019-04-10T12:16:43.575Z,51.70
2019-04-10T12:19:13.762Z,49.50
2019-04-10T12:21:44.248Z,49.70
2019-04-10T12:24:14.549Z,51.10
2019-04-10T12:26:44.863Z,57.00
2019-04-10T12:29:16.221Z,58.20
2019-04-10T12:31:46.456Z,60.70
2019-04-10T12:34:16.702Z,61.40
2019-04-10T12:36:47.132Z,64.70
2019-04-10T12:39:18.311Z,65.40
2019-04-10T12:41:48.913Z,65.30
2019-04-10T12:44:21.267Z,65.40
2019-04-10T12:46:51.656Z,69.00
2019-04-10T12:49:21.889Z,70.60
2019-04-10T12:53:23.359Z,78.30
2019-04-10T12:55:53.664Z,79.30
2019-04-10T12:58:23.767Z,87.90
2019-04-10T13:00:54.235Z,90.10
2019-04-10T13:03:33.358Z,85.60
2019-04-10T13:06:09.548Z,90.70
2019-04-10T13:08:57.060Z,90.80
2019-04-10T13:11:14.199Z,94.30
2019-04-10T13:13:44.608Z,94.80
2019-04-10T13:16:16.595Z,94.40
2019-04-10T13:18:47.518Z,95.10
2019-04-10T13:21:22.289Z,96.00
2019-04-10T13:23:59.442Z,94.20
2019-04-10T13:26:30.484Z,94.80
2019-04-10T13:29:03.907Z,95.00
2019-04-10T13:31:35.151Z,95.80
2019-04-10T13:34:05.544Z,95.40
2019-04-10T13:36:35.692Z,95.70
2019-04-10T13:39:06.733Z,95.70
2019-04-10T13:41:36.965Z,94.80
2019-04-10T13:44:07.212Z,93.70
2019-04-10T13:46:40.615Z,94.20
2019-04-10T13:49:11.573Z,95.30
2019-04-10T13:51:57.303Z,92.40
2019-04-10T13:57:47.292Z,93.20
2019-04-10T14:00:23.921Z,94.10
2019-04-10T14:02:54.428Z,92.30
2019-04-10T14:05:25.471Z,89.70
2019-04-10T14:08:06.556Z,89.80
2019-04-10T14:10:58.476Z,91.80
2019-04-10T14:13:35.819Z,90.90
2019-04-10T14:16:10.671Z,90.70
2019-04-10T14:21:37.372Z,87.20
2019-04-10T14:24:39.121Z,90.00
2019-04-10T14:30:09.112Z,91.00
2019-04-10T14:35:53.700Z,90.00
2019-04-10T14:38:41.176Z,89.10
2019-04-10T14:41:17.858Z,90.00
2019-04-10T14:43:50.230Z,86.50
2019-04-10T14:50:39.957Z,87.50
2019-04-10T14:52:34.984Z,86.40
2019-04-10T14:57:59.391Z,80.70
2019-04-10T15:00:42.306Z,79.90
2019-04-10T15:03:31.154Z,83.00
2019-04-10T16:37:58.192Z,69.30
2019-04-10T16:40:29.829Z,69.40
2019-04-10T16:43:01.453Z,69.40
2019-04-10T16:45:32.770Z,69.60
2019-04-10T16:48:03.127Z,69.20
2019-04-10T16:50:38.361Z,69.80
2019-04-10T16:53:09.752Z,69.70
2019-04-10T16:55:41.012Z,67.80
2019-04-10T16:58:13.796Z,68.40
2019-04-10T17:00:45.215Z,67.40
2019-04-10T17:03:17.565Z,68.30
2019-04-10T17:05:49.997Z,69.00
2019-04-10T17:08:21.751Z,67.60
2019-04-10T17:10:52.448Z,69.10
2019-04-10T17:13:24.631Z,70.00
2019-04-10T17:15:55.591Z,69.50
2019-04-10T17:18:27.480Z,70.00
2019-04-10T17:20:57.928Z,69.80
2019-04-10T17:23:28.868Z,70.80
2019-04-10T17:26:00.378Z,70.30
2019-04-10T17:28:32.313Z,69.20
2019-04-10T17:31:04.361Z,70.40
2019-04-10T17:33:36.060Z,71.90
2019-04-10T17:36:07.622Z,72.40
2019-04-10T17:38:38.610Z,71.80
2019-04-10T17:41:09.192Z,71.80
2019-04-10T17:43:39.647Z,72.30
2019-04-10T17:46:11.018Z,71.60
2019-04-10T17:48:42.049Z,72.90
2019-04-10T17:51:12.439Z,73.60
2019-04-10T17:53:42.713Z,74.30
2019-04-10T17:56:13.843Z,73.80
2019-04-10T17:58:45.585Z,73.50
2019-04-10T18:01:18.770Z,73.70
2019-04-10T18:03:54.836Z,73.80
2019-04-10T18:06:21.443Z,73.20
2019-04-10T18:08:51.860Z,75.30
2019-04-10T18:11:22.587Z,74.20
2019-04-10T18:13:53.086Z,75.20
2019-04-10T18:16:23.542Z,75.20
2019-04-10T18:18:53.960Z,76.80
2019-04-10T18:21:24.596Z,75.10
2019-04-10T18:23:55.658Z,74.70
2019-04-10T18:26:26.045Z,75.40
2019-04-10T18:28:56.330Z,75.40
2019-04-10T18:31:27.881Z,75.90
2019-04-10T18:33:58.718Z,75.70
2019-04-10T18:36:29.861Z,75.90
2019-04-10T18:39:00.218Z,75.90
2019-04-10T18:41:30.440Z,75.20
2019-04-10T18:44:00.865Z,76.10
2019-04-10T18:46:31.261Z,76.00
2019-04-10T18:49:13.536Z,75.50
2019-04-10T18:51:45.976Z,76.00
2019-04-10T18:54:27.782Z,78.00
2019-04-10T18:56:59.773Z,82.60
2019-04-10T18:59:32.315Z,83.20
2019-04-10T19:02:10.377Z,83.20
2019-04-10T19:04:49.454Z,81.30
2019-04-10T19:07:25.092Z,80.60
2019-04-10T19:10:04.293Z,84.10
2019-04-10T19:12:34.815Z,85.00
2019-04-10T19:15:06.774Z,85.00
2019-04-10T19:17:39.021Z,84.20
2019-04-10T19:20:11.100Z,86.80
2019-04-10T19:22:42.461Z,85.70
2019-04-10T19:25:12.811Z,86.80
2019-04-10T19:27:44.345Z,83.80
2019-04-10T19:30:35.361Z,86.00
2019-04-10T19:33:05.958Z,84.40
2019-04-10T19:35:37.278Z,85.40
2019-04-10T19:38:07.684Z,85.40
2019-04-10T19:40:38.724Z,84.90
2019-04-10T19:43:22.148Z,86.30
2019-04-10T19:45:48.125Z,88.20
2019-04-10T19:48:19.589Z,85.10
2019-04-10T19:50:49.942Z,84.30
2019-04-10T19:53:21.376Z,83.00
2019-04-10T19:55:51.814Z,82.70
2019-04-10T19:58:28.362Z,82.70
2019-04-10T20:00:56.869Z,82.10
2019-04-10T20:06:47.073Z,82.50
2019-04-10T20:28:26.805Z,87.40
2019-04-10T20:34:13.672Z,90.20
2019-04-10T20:36:49.003Z,86.60
2019-04-10T20:50:07.881Z,86.60
2019-04-10T20:52:40.859Z,86.80
2019-04-10T20:55:11.241Z,88.30
2019-04-10T20:57:48.066Z,88.60
2019-04-10T21:00:30.638Z,88.90
2019-04-10T21:03:04.321Z,90.00
2019-04-10T21:05:35.905Z,90.30
2019-04-10T21:08:09.303Z,90.70
2019-04-10T21:10:42.883Z,90.90
2019-04-10T21:26:17.795Z,90.30
2019-04-10T21:28:51.682Z,90.60
2019-04-10T21:31:38.871Z,90.90
2019-04-10T21:34:19.733Z,91.00
2019-04-10T21:36:55.067Z,91.20
2019-04-10T21:39:36.082Z,91.80
2019-04-10T22:59:22.111Z,97.40
2019-04-10T23:08:35.940Z,97.20
2019-04-10T23:17:39.597Z,98.10
2019-04-10T23:20:34.249Z,98.10
2019-04-10T23:23:09.211Z,97.80
2019-04-10T23:25:50.882Z,97.60
